sensor_id;sensor_type;location;lat;lon;timestamp;P1;durP1;ratioP1;P2;durP2;ratioP2
83556;SDS011;73523;55.740;13.276;2023-11-21T00:01:57;1.63;;;1.00;;
83556;SDS011;73523;55.740;13.276;2023-11-21T00:04:22;2.30;;;1.20;;
83556;SDS011;73523;55.740;13.276;2023-11-21T00:06:48;2.00;;;0.90;;
83556;SDS011;73523;55.740;13.276;2023-11-21T00:09:14;1.80;;;1.10;;
83556;SDS011;73523;55.740;13.276;2023-11-21T00:11:43;2.47;;;0.80;;
83556;SDS011;73523;55.740;13.276;2023-11-21T00:14:09;1.65;;;1.00;;
83556;SDS011;73523;55.740;13.276;2023-11-21T00:16:35;1.55;;;0.90;;
83556;SDS011;73523;55.740;13.276;2023-11-21T00:19:00;2.20;;;0.85;;
83556;SDS011;73523;55.740;13.276;2023-11-21T00:21:26;1.93;;;1.10;;
83556;SDS011;73523;55.740;13.276;2023-11-21T00:23:51;1.43;;;0.87;;
83556;SDS011;73523;55.740;13.276;2023-11-21T00:26:16;2.00;;;0.88;;
83556;SDS011;73523;55.740;13.276;2023-11-21T00:28:42;1.50;;;0.73;;
83556;SDS011;73523;55.740;13.276;2023-11-21T00:31:07;1.60;;;1.02;;
83556;SDS011;73523;55.740;13.276;2023-11-21T00:33:33;1.20;;;0.90;;
83556;SDS011;73523;55.740;13.276;2023-11-21T00:35:58;1.48;;;0.90;;
83556;SDS011;73523;55.740;13.276;2023-11-21T00:38:24;1.60;;;1.10;;
83556;SDS011;73523;55.740;13.276;2023-11-21T00:40:49;2.00;;;0.80;;
83556;SDS011;73523;55.740;13.276;2023-11-21T00:43:14;1.27;;;0.80;;
83556;SDS011;73523;55.740;13.276;2023-11-21T00:45:40;1.10;;;0.70;;
83556;SDS011;73523;55.740;13.276;2023-11-21T00:48:05;1.77;;;0.90;;
83556;SDS011;73523;55.740;13.276;2023-11-21T00:50:31;1.20;;;0.80;;
83556;SDS011;73523;55.740;13.276;2023-11-21T00:52:56;1.20;;;0.90;;
83556;SDS011;73523;55.740;13.276;2023-11-21T00:55:22;2.83;;;1.00;;
83556;SDS011;73523;55.740;13.276;2023-11-21T00:57:47;1.57;;;0.77;;
83556;SDS011;73523;55.740;13.276;2023-11-21T01:00:13;1.08;;;0.80;;
83556;SDS011;73523;55.740;13.276;2023-11-21T01:02:42;1.87;;;0.87;;
83556;SDS011;73523;55.740;13.276;2023-11-21T01:05:09;0.95;;;0.82;;
83556;SDS011;73523;55.740;13.276;2023-11-21T01:07:34;1.40;;;0.87;;
83556;SDS011;73523;55.740;13.276;2023-11-21T01:10:01;1.10;;;0.80;;
83556;SDS011;73523;55.740;13.276;2023-11-21T01:12:27;1.50;;;0.90;;
83556;SDS011;73523;55.740;13.276;2023-11-21T01:14:52;2.00;;;0.90;;
83556;SDS011;73523;55.740;13.276;2023-11-21T01:17:18;1.50;;;0.70;;
83556;SDS011;73523;55.740;13.276;2023-11-21T01:19:43;1.33;;;0.90;;
83556;SDS011;73523;55.740;13.276;2023-11-21T01:22:09;1.00;;;0.80;;
83556;SDS011;73523;55.740;13.276;2023-11-21T01:24:37;0.95;;;0.85;;
83556;SDS011;73523;55.740;13.276;2023-11-21T01:27:02;1.10;;;0.73;;
83556;SDS011;73523;55.740;13.276;2023-11-21T01:29:29;2.40;;;0.90;;
83556;SDS011;73523;55.740;13.276;2023-11-21T01:31:54;1.33;;;1.02;;
83556;SDS011;73523;55.740;13.276;2023-11-21T01:34:20;1.07;;;0.80;;
83556;SDS011;73523;55.740;13.276;2023-11-21T01:36:46;2.10;;;0.90;;
83556;SDS011;73523;55.740;13.276;2023-11-21T01:39:11;2.03;;;0.80;;
83556;SDS011;73523;55.740;13.276;2023-11-21T01:41:40;1.70;;;1.07;;
83556;SDS011;73523;55.740;13.276;2023-11-21T01:44:05;2.03;;;0.83;;
83556;SDS011;73523;55.740;13.276;2023-11-21T01:46:32;2.60;;;1.00;;
83556;SDS011;73523;55.740;13.276;2023-11-21T01:48:58;1.47;;;0.90;;
83556;SDS011;73523;55.740;13.276;2023-11-21T01:51:24;1.33;;;0.70;;
83556;SDS011;73523;55.740;13.276;2023-11-21T01:53:49;2.23;;;0.90;;
83556;SDS011;73523;55.740;13.276;2023-11-21T01:56:15;1.20;;;0.70;;
83556;SDS011;73523;55.740;13.276;2023-11-21T01:58:41;1.15;;;0.77;;
83556;SDS011;73523;55.740;13.276;2023-11-21T02:01:08;1.33;;;1.00;;
83556;SDS011;73523;55.740;13.276;2023-11-21T02:03:34;1.23;;;0.70;;
83556;SDS011;73523;55.740;13.276;2023-11-21T02:06:00;1.10;;;0.70;;
83556;SDS011;73523;55.740;13.276;2023-11-21T02:08:26;0.70;;;0.65;;
83556;SDS011;73523;55.740;13.276;2023-11-21T02:10:52;1.33;;;0.70;;
83556;SDS011;73523;55.740;13.276;2023-11-21T02:13:17;0.80;;;0.70;;
83556;SDS011;73523;55.740;13.276;2023-11-21T02:15:42;0.90;;;0.70;;
83556;SDS011;73523;55.740;13.276;2023-11-21T02:18:08;1.08;;;0.80;;
83556;SDS011;73523;55.740;13.276;2023-11-21T02:20:36;0.98;;;0.77;;
83556;SDS011;73523;55.740;13.276;2023-11-21T02:23:03;1.43;;;0.70;;
83556;SDS011;73523;55.740;13.276;2023-11-21T02:25:30;1.30;;;0.73;;
83556;SDS011;73523;55.740;13.276;2023-11-21T02:27:57;1.42;;;0.70;;
83556;SDS011;73523;55.740;13.276;2023-11-21T02:30:24;1.08;;;0.80;;
83556;SDS011;73523;55.740;13.276;2023-11-21T02:32:50;0.75;;;0.70;;
83556;SDS011;73523;55.740;13.276;2023-11-21T02:35:18;1.23;;;0.60;;
83556;SDS011;73523;55.740;13.276;2023-11-21T02:37:46;1.20;;;0.60;;
83556;SDS011;73523;55.740;13.276;2023-11-21T02:40:11;1.00;;;0.90;;
83556;SDS011;73523;55.740;13.276;2023-11-21T02:42:37;0.87;;;0.70;;
83556;SDS011;73523;55.740;13.276;2023-11-21T02:45:03;1.10;;;0.70;;
83556;SDS011;73523;55.740;13.276;2023-11-21T02:47:30;0.77;;;0.57;;
83556;SDS011;73523;55.740;13.276;2023-11-21T02:49:55;1.13;;;0.60;;
83556;SDS011;73523;55.740;13.276;2023-11-21T02:52:21;1.25;;;0.70;;
83556;SDS011;73523;55.740;13.276;2023-11-21T02:54:46;1.17;;;0.97;;
83556;SDS011;73523;55.740;13.276;2023-11-21T02:57:12;1.00;;;0.70;;
83556;SDS011;73523;55.740;13.276;2023-11-21T02:59:37;0.90;;;0.60;;
83556;SDS011;73523;55.740;13.276;2023-11-21T03:02:02;1.33;;;0.90;;
83556;SDS011;73523;55.740;13.276;2023-11-21T03:04:28;0.70;;;0.70;;
83556;SDS011;73523;55.740;13.276;2023-11-21T03:06:53;1.20;;;0.60;;
83556;SDS011;73523;55.740;13.276;2023-11-21T03:09:18;0.97;;;0.63;;
83556;SDS011;73523;55.740;13.276;2023-11-21T03:11:44;1.10;;;0.70;;
83556;SDS011;73523;55.740;13.276;2023-11-21T03:14:09;1.13;;;0.80;;
83556;SDS011;73523;55.740;13.276;2023-11-21T03:16:35;0.80;;;0.70;;
83556;SDS011;73523;55.740;13.276;2023-11-21T03:19:03;1.08;;;0.80;;
83556;SDS011;73523;55.740;13.276;2023-11-21T03:21:28;1.33;;;0.90;;
83556;SDS011;73523;55.740;13.276;2023-11-21T03:23:54;1.17;;;0.70;;
83556;SDS011;73523;55.740;13.276;2023-11-21T03:26:19;1.40;;;0.82;;
83556;SDS011;73523;55.740;13.276;2023-11-21T03:28:45;1.00;;;0.70;;
83556;SDS011;73523;55.740;13.276;2023-11-21T03:31:11;0.93;;;0.65;;
83556;SDS011;73523;55.740;13.276;2023-11-21T03:33:36;1.08;;;0.70;;
83556;SDS011;73523;55.740;13.276;2023-11-21T03:36:02;1.30;;;0.60;;
83556;SDS011;73523;55.740;13.276;2023-11-21T03:38:28;0.80;;;0.60;;
83556;SDS011;73523;55.740;13.276;2023-11-21T03:40:54;1.70;;;0.70;;
83556;SDS011;73523;55.740;13.276;2023-11-21T03:43:19;0.90;;;0.53;;
83556;SDS011;73523;55.740;13.276;2023-11-21T03:45:44;1.30;;;0.80;;
83556;SDS011;73523;55.740;13.276;2023-11-21T03:48:10;1.00;;;0.70;;
83556;SDS011;73523;55.740;13.276;2023-11-21T03:50:37;0.85;;;0.60;;
83556;SDS011;73523;55.740;13.276;2023-11-21T03:53:03;0.90;;;0.65;;
83556;SDS011;73523;55.740;13.276;2023-11-21T03:55:29;1.00;;;0.60;;
83556;SDS011;73523;55.740;13.276;2023-11-21T03:57:56;0.70;;;0.63;;
83556;SDS011;73523;55.740;13.276;2023-11-21T04:00:22;2.13;;;0.60;;
83556;SDS011;73523;55.740;13.276;2023-11-21T04:02:47;0.83;;;0.60;;
83556;SDS011;73523;55.740;13.276;2023-11-21T04:05:13;0.80;;;0.50;;
83556;SDS011;73523;55.740;13.276;2023-11-21T04:07:38;1.03;;;0.70;;
83556;SDS011;73523;55.740;13.276;2023-11-21T04:10:04;1.00;;;0.80;;
83556;SDS011;73523;55.740;13.276;2023-11-21T04:12:34;0.60;;;0.50;;
83556;SDS011;73523;55.740;13.276;2023-11-21T04:15:00;0.75;;;0.70;;
83556;SDS011;73523;55.740;13.276;2023-11-21T04:17:26;0.63;;;0.50;;
83556;SDS011;73523;55.740;13.276;2023-11-21T04:19:51;0.87;;;0.80;;
83556;SDS011;73523;55.740;13.276;2023-11-21T04:22:16;1.20;;;0.60;;
83556;SDS011;73523;55.740;13.276;2023-11-21T04:24:41;0.80;;;0.70;;
83556;SDS011;73523;55.740;13.276;2023-11-21T04:27:07;1.53;;;0.70;;
83556;SDS011;73523;55.740;13.276;2023-11-21T04:29:32;0.90;;;0.70;;
83556;SDS011;73523;55.740;13.276;2023-11-21T04:31:58;0.83;;;0.70;;
83556;SDS011;73523;55.740;13.276;2023-11-21T04:34:23;1.10;;;0.57;;
83556;SDS011;73523;55.740;13.276;2023-11-21T04:36:49;0.70;;;0.60;;
83556;SDS011;73523;55.740;13.276;2023-11-21T04:39:15;0.90;;;0.60;;
83556;SDS011;73523;55.740;13.276;2023-11-21T04:41:40;0.80;;;0.50;;
83556;SDS011;73523;55.740;13.276;2023-11-21T04:44:06;1.00;;;0.80;;
83556;SDS011;73523;55.740;13.276;2023-11-21T04:46:31;1.10;;;0.50;;
83556;SDS011;73523;55.740;13.276;2023-11-21T04:48:57;1.00;;;0.63;;
83556;SDS011;73523;55.740;13.276;2023-11-21T04:51:23;0.70;;;0.45;;
83556;SDS011;73523;55.740;13.276;2023-11-21T04:53:48;1.00;;;0.60;;
83556;SDS011;73523;55.740;13.276;2023-11-21T04:56:13;0.70;;;0.60;;
83556;SDS011;73523;55.740;13.276;2023-11-21T04:58:39;1.63;;;0.60;;
83556;SDS011;73523;55.740;13.276;2023-11-21T05:01:05;1.48;;;0.55;;
83556;SDS011;73523;55.740;13.276;2023-11-21T05:03:32;2.22;;;0.52;;
83556;SDS011;73523;55.740;13.276;2023-11-21T05:05:57;1.13;;;0.60;;
83556;SDS011;73523;55.740;13.276;2023-11-21T05:08:22;0.93;;;0.70;;
83556;SDS011;73523;55.740;13.276;2023-11-21T05:10:48;0.70;;;0.60;;
83556;SDS011;73523;55.740;13.276;2023-11-21T05:13:14;1.57;;;0.50;;
83556;SDS011;73523;55.740;13.276;2023-11-21T05:15:40;1.63;;;0.70;;
83556;SDS011;73523;55.740;13.276;2023-11-21T05:18:06;2.57;;;0.70;;
83556;SDS011;73523;55.740;13.276;2023-11-21T05:20:31;1.67;;;0.60;;
83556;SDS011;73523;55.740;13.276;2023-11-21T05:22:58;3.10;;;0.70;;
83556;SDS011;73523;55.740;13.276;2023-11-21T05:25:23;3.43;;;0.70;;
83556;SDS011;73523;55.740;13.276;2023-11-21T05:27:49;1.70;;;0.68;;
83556;SDS011;73523;55.740;13.276;2023-11-21T05:30:14;2.90;;;0.77;;
83556;SDS011;73523;55.740;13.276;2023-11-21T05:32:40;3.47;;;0.80;;
83556;SDS011;73523;55.740;13.276;2023-11-21T05:35:07;2.47;;;0.70;;
83556;SDS011;73523;55.740;13.276;2023-11-21T05:37:37;0.90;;;0.67;;
83556;SDS011;73523;55.740;13.276;2023-11-21T05:40:04;2.92;;;0.80;;
83556;SDS011;73523;55.740;13.276;2023-11-21T05:42:31;1.33;;;0.65;;
83556;SDS011;73523;55.740;13.276;2023-11-21T05:44:57;3.47;;;0.70;;
83556;SDS011;73523;55.740;13.276;2023-11-21T05:47:24;3.70;;;0.70;;
83556;SDS011;73523;55.740;13.276;2023-11-21T05:49:51;3.13;;;0.63;;
83556;SDS011;73523;55.740;13.276;2023-11-21T05:52:17;1.48;;;0.55;;
83556;SDS011;73523;55.740;13.276;2023-11-21T05:54:43;1.98;;;0.70;;
83556;SDS011;73523;55.740;13.276;2023-11-21T05:57:08;2.43;;;0.80;;
83556;SDS011;73523;55.740;13.276;2023-11-21T05:59:34;1.63;;;0.60;;
83556;SDS011;73523;55.740;13.276;2023-11-21T06:01:59;1.57;;;0.60;;
83556;SDS011;73523;55.740;13.276;2023-11-21T06:04:24;2.40;;;0.70;;
83556;SDS011;73523;55.740;13.276;2023-11-21T06:06:51;2.40;;;0.50;;
83556;SDS011;73523;55.740;13.276;2023-11-21T06:09:17;1.70;;;0.67;;
83556;SDS011;73523;55.740;13.276;2023-11-21T06:11:42;1.83;;;0.80;;
83556;SDS011;73523;55.740;13.276;2023-11-21T06:14:08;1.40;;;0.70;;
83556;SDS011;73523;55.740;13.276;2023-11-21T06:16:34;1.42;;;0.90;;
83556;SDS011;73523;55.740;13.276;2023-11-21T06:19:00;1.30;;;0.57;;
83556;SDS011;73523;55.740;13.276;2023-11-21T06:21:26;2.30;;;0.70;;
83556;SDS011;73523;55.740;13.276;2023-11-21T06:23:51;2.60;;;0.73;;
83556;SDS011;73523;55.740;13.276;2023-11-21T06:26:17;1.65;;;0.52;;
83556;SDS011;73523;55.740;13.276;2023-11-21T06:28:43;2.55;;;0.70;;
83556;SDS011;73523;55.740;13.276;2023-11-21T06:31:09;3.17;;;0.50;;
83556;SDS011;73523;55.740;13.276;2023-11-21T06:33:35;1.30;;;0.70;;
83556;SDS011;73523;55.740;13.276;2023-11-21T06:36:01;2.08;;;0.60;;
83556;SDS011;73523;55.740;13.276;2023-11-21T06:38:27;2.35;;;0.70;;
83556;SDS011;73523;55.740;13.276;2023-11-21T06:40:53;3.33;;;0.60;;
83556;SDS011;73523;55.740;13.276;2023-11-21T06:43:19;0.80;;;0.50;;
83556;SDS011;73523;55.740;13.276;2023-11-21T06:45:47;2.43;;;0.53;;
83556;SDS011;73523;55.740;13.276;2023-11-21T06:48:12;1.30;;;0.63;;
83556;SDS011;73523;55.740;13.276;2023-11-21T06:50:37;1.50;;;0.67;;
83556;SDS011;73523;55.740;13.276;2023-11-21T06:53:03;3.00;;;0.80;;
83556;SDS011;73523;55.740;13.276;2023-11-21T06:55:31;2.30;;;0.60;;
83556;SDS011;73523;55.740;13.276;2023-11-21T06:57:57;4.90;;;0.70;;
83556;SDS011;73523;55.740;13.276;2023-11-21T07:00:23;0.95;;;0.60;;
83556;SDS011;73523;55.740;13.276;2023-11-21T07:02:48;5.77;;;0.73;;
83556;SDS011;73523;55.740;13.276;2023-11-21T07:05:14;3.27;;;0.70;;
83556;SDS011;73523;55.740;13.276;2023-11-21T07:07:40;3.47;;;0.70;;
83556;SDS011;73523;55.740;13.276;2023-11-21T07:10:05;1.90;;;0.68;;
83556;SDS011;73523;55.740;13.276;2023-11-21T07:12:33;3.20;;;0.70;;
83556;SDS011;73523;55.740;13.276;2023-11-21T07:14:59;1.77;;;0.70;;
83556;SDS011;73523;55.740;13.276;2023-11-21T07:17:25;1.40;;;0.80;;
83556;SDS011;73523;55.740;13.276;2023-11-21T07:19:50;1.67;;;0.60;;
83556;SDS011;73523;55.740;13.276;2023-11-21T07:22:16;2.03;;;0.60;;
83556;SDS011;73523;55.740;13.276;2023-11-21T07:24:50;2.70;;;0.75;;
83556;SDS011;73523;55.740;13.276;2023-11-21T07:27:18;1.23;;;0.63;;
83556;SDS011;73523;55.740;13.276;2023-11-21T07:29:44;2.03;;;0.80;;
83556;SDS011;73523;55.740;13.276;2023-11-21T07:32:09;1.95;;;0.70;;
83556;SDS011;73523;55.740;13.276;2023-11-21T07:34:35;2.13;;;0.77;;
83556;SDS011;73523;55.740;13.276;2023-11-21T07:37:01;1.67;;;0.85;;
83556;SDS011;73523;55.740;13.276;2023-11-21T07:39:27;1.23;;;0.70;;
83556;SDS011;73523;55.740;13.276;2023-11-21T07:41:53;1.73;;;0.75;;
83556;SDS011;73523;55.740;13.276;2023-11-21T07:44:19;1.97;;;0.70;;
83556;SDS011;73523;55.740;13.276;2023-11-21T07:46:45;1.17;;;0.70;;
83556;SDS011;73523;55.740;13.276;2023-11-21T07:49:10;1.10;;;0.60;;
83556;SDS011;73523;55.740;13.276;2023-11-21T07:51:36;1.42;;;0.70;;
83556;SDS011;73523;55.740;13.276;2023-11-21T07:54:01;0.90;;;0.60;;
83556;SDS011;73523;55.740;13.276;2023-11-21T07:56:26;2.70;;;0.83;;
83556;SDS011;73523;55.740;13.276;2023-11-21T07:58:52;5.00;;;0.70;;
83556;SDS011;73523;55.740;13.276;2023-11-21T08:01:17;1.37;;;0.60;;
83556;SDS011;73523;55.740;13.276;2023-11-21T08:03:43;1.60;;;0.63;;
83556;SDS011;73523;55.740;13.276;2023-11-21T08:06:09;1.08;;;0.60;;
83556;SDS011;73523;55.740;13.276;2023-11-21T08:08:34;3.15;;;0.60;;
83556;SDS011;73523;55.740;13.276;2023-11-21T08:11:00;1.10;;;0.50;;
83556;SDS011;73523;55.740;13.276;2023-11-21T08:13:27;1.00;;;0.60;;
83556;SDS011;73523;55.740;13.276;2023-11-21T08:15:59;2.97;;;0.50;;
83556;SDS011;73523;55.740;13.276;2023-11-21T08:18:27;1.15;;;0.60;;
83556;SDS011;73523;55.740;13.276;2023-11-21T08:20:54;1.17;;;0.60;;
83556;SDS011;73523;55.740;13.276;2023-11-21T08:23:20;0.80;;;0.50;;
83556;SDS011;73523;55.740;13.276;2023-11-21T08:25:46;1.00;;;0.63;;
83556;SDS011;73523;55.740;13.276;2023-11-21T08:28:11;1.63;;;0.55;;
83556;SDS011;73523;55.740;13.276;2023-11-21T08:30:39;2.28;;;0.70;;
83556;SDS011;73523;55.740;13.276;2023-11-21T08:33:06;1.25;;;0.68;;
83556;SDS011;73523;55.740;13.276;2023-11-21T08:35:33;3.08;;;0.90;;
83556;SDS011;73523;55.740;13.276;2023-11-21T08:37:59;2.10;;;0.50;;
83556;SDS011;73523;55.740;13.276;2023-11-21T08:40:24;1.27;;;0.63;;
83556;SDS011;73523;55.740;13.276;2023-11-21T08:42:50;0.80;;;0.60;;
83556;SDS011;73523;55.740;13.276;2023-11-21T08:45:17;1.20;;;0.55;;
83556;SDS011;73523;55.740;13.276;2023-11-21T08:47:43;1.67;;;0.60;;
83556;SDS011;73523;55.740;13.276;2023-11-21T08:50:09;1.07;;;0.60;;
83556;SDS011;73523;55.740;13.276;2023-11-21T08:52:37;2.10;;;0.70;;
83556;SDS011;73523;55.740;13.276;2023-11-21T08:55:02;1.00;;;0.70;;
83556;SDS011;73523;55.740;13.276;2023-11-21T08:57:33;0.80;;;0.55;;
83556;SDS011;73523;55.740;13.276;2023-11-21T09:00:00;0.70;;;0.55;;
83556;SDS011;73523;55.740;13.276;2023-11-21T09:02:25;0.50;;;0.50;;
83556;SDS011;73523;55.740;13.276;2023-11-21T09:04:51;0.68;;;0.60;;
83556;SDS011;73523;55.740;13.276;2023-11-21T09:07:17;0.93;;;0.63;;
83556;SDS011;73523;55.740;13.276;2023-11-21T09:09:46;2.92;;;0.70;;
83556;SDS011;73523;55.740;13.276;2023-11-21T09:12:12;1.73;;;0.70;;
83556;SDS011;73523;55.740;13.276;2023-11-21T09:14:38;0.80;;;0.60;;
83556;SDS011;73523;55.740;13.276;2023-11-21T09:17:04;0.80;;;0.70;;
83556;SDS011;73523;55.740;13.276;2023-11-21T09:19:36;0.60;;;0.60;;
83556;SDS011;73523;55.740;13.276;2023-11-21T09:22:04;0.80;;;0.60;;
83556;SDS011;73523;55.740;13.276;2023-11-21T09:24:30;0.85;;;0.50;;
83556;SDS011;73523;55.740;13.276;2023-11-21T09:26:56;0.85;;;0.52;;
83556;SDS011;73523;55.740;13.276;2023-11-21T09:29:21;1.27;;;0.60;;
83556;SDS011;73523;55.740;13.276;2023-11-21T09:31:47;1.00;;;0.70;;
83556;SDS011;73523;55.740;13.276;2023-11-21T09:34:13;1.10;;;0.60;;
83556;SDS011;73523;55.740;13.276;2023-11-21T09:36:40;1.10;;;0.60;;
83556;SDS011;73523;55.740;13.276;2023-11-21T09:39:06;1.40;;;0.60;;
83556;SDS011;73523;55.740;13.276;2023-11-21T09:41:36;2.90;;;0.60;;
83556;SDS011;73523;55.740;13.276;2023-11-21T09:44:08;1.33;;;0.70;;
83556;SDS011;73523;55.740;13.276;2023-11-21T09:46:40;0.80;;;0.50;;
83556;SDS011;73523;55.740;13.276;2023-11-21T09:49:08;1.02;;;0.50;;
83556;SDS011;73523;55.740;13.276;2023-11-21T09:51:38;1.50;;;0.63;;
83556;SDS011;73523;55.740;13.276;2023-11-21T09:54:07;0.77;;;0.50;;
83556;SDS011;73523;55.740;13.276;2023-11-21T09:56:35;0.57;;;0.50;;
83556;SDS011;73523;55.740;13.276;2023-11-21T09:59:01;0.70;;;0.40;;
83556;SDS011;73523;55.740;13.276;2023-11-21T10:01:29;0.90;;;0.50;;
83556;SDS011;73523;55.740;13.276;2023-11-21T10:03:56;0.82;;;0.55;;
83556;SDS011;73523;55.740;13.276;2023-11-21T10:06:21;0.85;;;0.50;;
83556;SDS011;73523;55.740;13.276;2023-11-21T10:08:49;1.08;;;0.70;;
83556;SDS011;73523;55.740;13.276;2023-11-21T10:11:15;0.65;;;0.60;;
83556;SDS011;73523;55.740;13.276;2023-11-21T10:13:43;1.40;;;0.60;;
83556;SDS011;73523;55.740;13.276;2023-11-21T10:16:10;0.85;;;0.38;;
83556;SDS011;73523;55.740;13.276;2023-11-21T10:18:41;0.65;;;0.50;;
83556;SDS011;73523;55.740;13.276;2023-11-21T10:21:07;0.63;;;0.50;;
83556;SDS011;73523;55.740;13.276;2023-11-21T10:23:34;1.40;;;0.43;;
83556;SDS011;73523;55.740;13.276;2023-11-21T10:25:59;1.50;;;0.50;;
83556;SDS011;73523;55.740;13.276;2023-11-21T10:28:25;0.80;;;0.40;;
83556;SDS011;73523;55.740;13.276;2023-11-21T10:30:50;1.10;;;0.50;;
83556;SDS011;73523;55.740;13.276;2023-11-21T10:33:17;1.00;;;0.40;;
83556;SDS011;73523;55.740;13.276;2023-11-21T10:35:51;0.77;;;0.50;;
83556;SDS011;73523;55.740;13.276;2023-11-21T10:38:19;0.85;;;0.43;;
83556;SDS011;73523;55.740;13.276;2023-11-21T10:40:49;1.25;;;0.65;;
83556;SDS011;73523;55.740;13.276;2023-11-21T10:43:15;0.50;;;0.40;;
83556;SDS011;73523;55.740;13.276;2023-11-21T10:45:41;0.60;;;0.50;;
83556;SDS011;73523;55.740;13.276;2023-11-21T10:48:14;0.80;;;0.50;;
83556;SDS011;73523;55.740;13.276;2023-11-21T10:50:40;0.50;;;0.40;;
83556;SDS011;73523;55.740;13.276;2023-11-21T10:53:06;0.80;;;0.50;;
83556;SDS011;73523;55.740;13.276;2023-11-21T10:55:33;1.20;;;0.50;;
83556;SDS011;73523;55.740;13.276;2023-11-21T10:58:00;1.40;;;0.50;;
83556;SDS011;73523;55.740;13.276;2023-11-21T11:00:27;0.95;;;0.57;;
83556;SDS011;73523;55.740;13.276;2023-11-21T11:02:54;0.93;;;0.50;;
83556;SDS011;73523;55.740;13.276;2023-11-21T11:05:21;1.88;;;0.40;;
83556;SDS011;73523;55.740;13.276;2023-11-21T11:07:51;0.85;;;0.40;;
83556;SDS011;73523;55.740;13.276;2023-11-21T11:10:25;0.90;;;0.45;;
83556;SDS011;73523;55.740;13.276;2023-11-21T11:12:52;0.57;;;0.40;;
83556;SDS011;73523;55.740;13.276;2023-11-21T11:15:19;0.75;;;0.40;;
83556;SDS011;73523;55.740;13.276;2023-11-21T11:17:45;0.68;;;0.57;;
83556;SDS011;73523;55.740;13.276;2023-11-21T11:20:12;0.82;;;0.43;;
83556;SDS011;73523;55.740;13.276;2023-11-21T11:28:21;0.70;;;0.60;;
83556;SDS011;73523;55.740;13.276;2023-11-21T11:36:09;0.60;;;0.40;;
83556;SDS011;73523;55.740;13.276;2023-11-21T11:38:45;1.10;;;0.45;;
83556;SDS011;73523;55.740;13.276;2023-11-21T11:41:11;1.80;;;0.52;;
83556;SDS011;73523;55.740;13.276;2023-11-21T11:43:37;1.10;;;0.30;;
83556;SDS011;73523;55.740;13.276;2023-11-21T11:46:11;1.40;;;0.43;;
83556;SDS011;73523;55.740;13.276;2023-11-21T11:48:40;0.47;;;0.43;;
83556;SDS011;73523;55.740;13.276;2023-11-21T11:53:45;0.70;;;0.50;;
83556;SDS011;73523;55.740;13.276;2023-11-21T11:58:59;0.70;;;0.40;;
83556;SDS011;73523;55.740;13.276;2023-11-21T12:01:28;0.45;;;0.40;;
83556;SDS011;73523;55.740;13.276;2023-11-21T12:06:56;0.90;;;0.40;;
83556;SDS011;73523;55.740;13.276;2023-11-21T12:09:24;0.50;;;0.40;;
83556;SDS011;73523;55.740;13.276;2023-11-21T12:11:51;0.52;;;0.50;;
83556;SDS011;73523;55.740;13.276;2023-11-21T12:14:18;0.50;;;0.40;;
83556;SDS011;73523;55.740;13.276;2023-11-21T12:16:43;0.50;;;0.33;;
83556;SDS011;73523;55.740;13.276;2023-11-21T12:19:09;0.53;;;0.40;;
83556;SDS011;73523;55.740;13.276;2023-11-21T12:21:36;1.27;;;0.50;;
83556;SDS011;73523;55.740;13.276;2023-11-21T12:24:02;0.73;;;0.43;;
83556;SDS011;73523;55.740;13.276;2023-11-21T12:26:28;0.85;;;0.50;;
83556;SDS011;73523;55.740;13.276;2023-11-21T12:28:53;0.40;;;0.30;;
83556;SDS011;73523;55.740;13.276;2023-11-21T12:31:22;0.90;;;0.40;;
83556;SDS011;73523;55.740;13.276;2023-11-21T12:33:47;0.47;;;0.30;;
83556;SDS011;73523;55.740;13.276;2023-11-21T12:36:13;1.00;;;0.38;;
83556;SDS011;73523;55.740;13.276;2023-11-21T12:38:40;0.40;;;0.40;;
83556;SDS011;73523;55.740;13.276;2023-11-21T12:41:05;0.45;;;0.40;;
83556;SDS011;73523;55.740;13.276;2023-11-21T12:43:31;0.43;;;0.40;;
83556;SDS011;73523;55.740;13.276;2023-11-21T12:46:06;0.47;;;0.20;;
83556;SDS011;73523;55.740;13.276;2023-11-21T12:48:32;0.60;;;0.50;;
83556;SDS011;73523;55.740;13.276;2023-11-21T12:50:58;0.70;;;0.40;;
83556;SDS011;73523;55.740;13.276;2023-11-21T12:53:25;0.82;;;0.43;;
83556;SDS011;73523;55.740;13.276;2023-11-21T12:55:50;0.70;;;0.40;;
83556;SDS011;73523;55.740;13.276;2023-11-21T12:58:20;0.77;;;0.40;;
83556;SDS011;73523;55.740;13.276;2023-11-21T13:00:48;1.10;;;0.50;;
83556;SDS011;73523;55.740;13.276;2023-11-21T13:03:15;0.40;;;0.30;;
83556;SDS011;73523;55.740;13.276;2023-11-21T13:05:43;0.40;;;0.30;;
83556;SDS011;73523;55.740;13.276;2023-11-21T13:08:10;0.60;;;0.40;;
83556;SDS011;73523;55.740;13.276;2023-11-21T13:10:38;0.60;;;0.50;;
83556;SDS011;73523;55.740;13.276;2023-11-21T13:13:09;0.40;;;0.30;;
83556;SDS011;73523;55.740;13.276;2023-11-21T13:15:39;0.70;;;0.40;;
83556;SDS011;73523;55.740;13.276;2023-11-21T13:18:06;0.47;;;0.47;;
83556;SDS011;73523;55.740;13.276;2023-11-21T13:20:31;0.50;;;0.40;;
83556;SDS011;73523;55.740;13.276;2023-11-21T13:22:57;0.40;;;0.40;;
83556;SDS011;73523;55.740;13.276;2023-11-21T13:25:26;1.15;;;0.45;;
83556;SDS011;73523;55.740;13.276;2023-11-21T13:27:53;0.50;;;0.40;;
83556;SDS011;73523;55.740;13.276;2023-11-21T13:30:19;0.47;;;0.38;;
83556;SDS011;73523;55.740;13.276;2023-11-21T13:32:51;0.40;;;0.30;;
83556;SDS011;73523;55.740;13.276;2023-11-21T13:35:17;0.60;;;0.50;;
83556;SDS011;73523;55.740;13.276;2023-11-21T13:37:47;1.02;;;0.30;;
83556;SDS011;73523;55.740;13.276;2023-11-21T13:40:15;0.40;;;0.40;;
83556;SDS011;73523;55.740;13.276;2023-11-21T13:42:45;0.40;;;0.37;;
83556;SDS011;73523;55.740;13.276;2023-11-21T13:45:10;0.60;;;0.30;;
83556;SDS011;73523;55.740;13.276;2023-11-21T13:47:37;0.47;;;0.40;;
83556;SDS011;73523;55.740;13.276;2023-11-21T13:50:03;0.40;;;0.30;;
83556;SDS011;73523;55.740;13.276;2023-11-21T13:52:31;0.60;;;0.30;;
83556;SDS011;73523;55.740;13.276;2023-11-21T13:54:58;0.40;;;0.38;;
83556;SDS011;73523;55.740;13.276;2023-11-21T13:57:26;0.60;;;0.35;;
83556;SDS011;73523;55.740;13.276;2023-11-21T13:59:52;0.50;;;0.30;;
83556;SDS011;73523;55.740;13.276;2023-11-21T14:02:17;0.67;;;0.47;;
83556;SDS011;73523;55.740;13.276;2023-11-21T14:04:43;0.60;;;0.43;;
83556;SDS011;73523;55.740;13.276;2023-11-21T14:07:20;1.02;;;0.40;;
83556;SDS011;73523;55.740;13.276;2023-11-21T14:09:51;0.50;;;0.40;;
83556;SDS011;73523;55.740;13.276;2023-11-21T14:12:17;0.40;;;0.30;;
83556;SDS011;73523;55.740;13.276;2023-11-21T14:14:43;0.60;;;0.30;;
83556;SDS011;73523;55.740;13.276;2023-11-21T14:17:09;0.60;;;0.40;;
83556;SDS011;73523;55.740;13.276;2023-11-21T14:19:35;0.45;;;0.30;;
83556;SDS011;73523;55.740;13.276;2023-11-21T14:22:05;0.38;;;0.32;;
83556;SDS011;73523;55.740;13.276;2023-11-21T14:24:30;0.47;;;0.40;;
83556;SDS011;73523;55.740;13.276;2023-11-21T14:26:57;0.43;;;0.38;;
83556;SDS011;73523;55.740;13.276;2023-11-21T14:29:23;0.52;;;0.40;;
83556;SDS011;73523;55.740;13.276;2023-11-21T14:31:48;0.90;;;0.40;;
83556;SDS011;73523;55.740;13.276;2023-11-21T14:34:16;0.40;;;0.20;;
83556;SDS011;73523;55.740;13.276;2023-11-21T14:36:42;0.50;;;0.40;;
83556;SDS011;73523;55.740;13.276;2023-11-21T14:39:09;0.40;;;0.40;;
83556;SDS011;73523;55.740;13.276;2023-11-21T14:41:47;0.50;;;0.40;;
83556;SDS011;73523;55.740;13.276;2023-11-21T14:44:13;0.70;;;0.40;;
83556;SDS011;73523;55.740;13.276;2023-11-21T14:46:40;0.50;;;0.30;;
83556;SDS011;73523;55.740;13.276;2023-11-21T14:49:09;0.60;;;0.30;;